Time;durP1;ratioP1;P1;durP2;ratioP2;P2;SDS_P1;SDS_P2;PMS_P1;PMS_P2;Temp;Humidity;BMP_temperature;BMP_pressure;BME280_temperature;BME280_humidity;BME280_pressure;Samples;Min_cycle;Max_cycle;Signal;HPM_P1;HPM_P2
2022/08/14 00:02:13;;;;;;;9.18;4.82;;;;;;;22.39;nan;-24438.91;4939991;29;20276;-81
2022/08/14 00:04:38;;;;;;;7.80;4.68;;;;;;;22.37;nan;-24438.34;4939603;29;20197;-79
2022/08/14 00:07:05;;;;;;;7.80;4.60;;;;;;;22.08;nan;-24430.47;4957883;29;20556;-80
2022/08/14 00:09:30;;;;;;;8.55;4.50;;;;;;;22.02;nan;-24428.81;4939365;29;20181;-79
2022/08/14 00:11:56;;;;;;;8.65;4.45;;;;;;;22.24;nan;-24434.75;4957238;29;20189;-80
2022/08/14 00:14:22;;;;;;;6.35;4.22;;;;;;;22.18;nan;-24433.09;4938885;29;20210;-79
2022/08/14 00:16:49;;;;;;;8.63;5.35;;;;;;;;;;4937794;29;20234;-80
2022/08/14 00:19:15;;;;;;;8.07;4.55;;;;;;;22.11;nan;-24431.16;4954650;28;20186;-80
2022/08/14 00:21:40;;;;;;;6.90;4.57;;;;;;;21.79;nan;-24422.44;4939335;29;20612;-81
2022/08/14 00:24:06;;;;;;;8.35;4.90;;;;;;;22.02;nan;-24428.94;4955774;29;20178;-79
2022/08/14 00:26:32;;;;;;;7.53;4.78;;;;;;;22.11;nan;-24431.28;4956027;29;20221;-79
2022/08/14 00:28:57;;;;;;;8.20;4.68;;;;;;;22.15;nan;-24432.25;4938710;29;20226;-80
2022/08/14 00:31:23;;;;;;;7.38;5.00;;;;;;;21.96;nan;-24427.16;4956066;29;20200;-77
2022/08/14 00:33:48;;;;;;;8.02;4.75;;;;;;;21.92;nan;-24426.03;4971753;28;20288;-80
2022/08/14 00:36:14;;;;;;;6.70;4.05;;;;;;;22.01;nan;-24428.53;4938273;29;20622;-80
2022/08/14 00:38:39;;;;;;;7.95;4.45;;;;;;;21.91;nan;-24425.91;4939089;29;20194;-79
2022/08/14 00:41:07;;;;;;;8.13;4.15;;;;;;;21.75;nan;-24421.47;4938257;29;20250;-80
2022/08/14 00:43:36;;;;;;;7.68;4.80;;;;;;;21.82;nan;-24423.25;4938071;29;20186;-79
2022/08/14 00:46:08;;;;;;;7.80;4.53;;;;;;;21.77;nan;-24421.88;4955995;29;20193;-80
2022/08/14 00:48:35;;;;;;;7.35;4.72;;;;;;;21.85;nan;-24424.22;4938604;29;20186;-81
2022/08/14 00:51:01;;;;;;;6.93;4.38;;;;;;;21.79;nan;-24422.44;4939149;29;20657;-79
2022/08/14 00:53:27;;;;;;;7.32;4.57;;;;;;;21.75;nan;-24421.31;4938928;29;20653;-79
2022/08/14 00:55:55;;;;;;;7.97;4.53;;;;;;;21.74;nan;-24421.03;4938122;29;20210;-79
2022/08/14 00:58:30;;;;;;;8.73;4.70;;;;;;;21.54;nan;-24415.66;4937593;29;20212;-80
2022/08/14 01:00:57;;;;;;;12.45;5.32;;;;;;;21.77;nan;-24422.00;4937289;29;20276;-79
2022/08/14 01:03:24;;;;;;;9.02;5.15;;;;;;;20.48;nan;-24386.53;4970017;28;20193;-80
2022/08/14 01:05:51;;;;;;;8.27;4.55;;;;;;;21.90;nan;-24425.63;4939358;29;20252;-79
2022/08/14 01:08:23;;;;;;;7.47;4.45;;;;;;;21.87;nan;-24424.78;4938757;29;20190;-79
2022/08/14 01:10:51;;;;;;;7.30;4.40;;;;;;;21.86;nan;-24424.38;4937284;29;20707;-79
2022/08/14 01:13:26;;;;;;;8.63;5.13;;;;;;;21.81;nan;-24423.13;4954748;29;20186;-80
2022/08/14 01:15:54;;;;;;;6.85;4.43;;;;;;;21.92;nan;-24426.16;4955532;29;20229;-80
2022/08/14 01:21:07;;;;;;;7.82;4.45;;;;;;;21.94;nan;-24426.72;4955069;29;20262;-79
2022/08/14 01:23:35;;;;;;;7.13;4.32;;;;;;;21.85;nan;-24424.09;4953654;29;20191;-80
2022/08/14 01:26:02;;;;;;;8.38;4.97;;;;;;;21.77;nan;-24421.88;4936979;29;20190;-80
2022/08/14 01:28:30;;;;;;;10.77;5.10;;;;;;;21.84;nan;-24423.81;4937355;29;20584;-80
2022/08/14 01:30:57;;;;;;;9.52;5.25;;;;;;;21.83;nan;-24423.69;4956140;29;20657;-80
2022/08/14 01:33:28;;;;;;;9.85;4.60;;;;;;;21.73;nan;-24420.91;4937137;29;20186;-80
2022/08/14 01:35:57;;;;;;;9.25;5.75;;;;;;;21.24;nan;-24407.31;4952519;29;20211;-81
2022/08/14 01:38:25;;;;;;;9.85;5.72;;;;;;;21.44;nan;-24413.00;4954790;29;20187;-80
2022/08/14 01:40:52;;;;;;;10.05;4.95;;;;;;;21.33;nan;-24409.81;4937311;29;20197;-79
2022/08/14 01:43:17;;;;;;;10.02;5.70;;;;;;;21.30;nan;-24409.00;4954169;29;20201;-79
2022/08/14 01:45:44;;;;;;;7.57;4.57;;;;;;;21.49;nan;-24414.25;4953864;29;20178;-80
2022/08/14 01:48:12;;;;;;;10.00;5.55;;;;;;;21.47;nan;-24413.84;4955649;29;20269;-79
2022/08/14 01:50:38;;;;;;;8.70;5.13;;;;;;;21.18;nan;-24405.81;4937671;29;20225;-80
2022/08/14 01:53:03;;;;;;;7.63;4.50;;;;;;;21.25;nan;-24407.75;4954691;29;20182;-79
2022/08/14 01:55:30;;;;;;;9.75;5.15;;;;;;;21.40;nan;-24411.91;4954748;29;20212;-79
2022/08/14 01:57:59;;;;;;;8.55;5.03;;;;;;;21.20;nan;-24406.34;4937817;29;20205;-80
2022/08/14 02:00:25;;;;;;;8.80;5.15;;;;;;;21.45;nan;-24413.28;4936660;29;20186;-80
2022/08/14 02:02:50;;;;;;;9.07;4.75;;;;;;;21.21;nan;-24406.50;4937506;29;20285;-80
2022/08/14 02:05:16;;;;;;;8.65;5.00;;;;;;;21.23;nan;-24407.19;4936052;29;20245;-80
2022/08/14 02:07:43;;;;;;;8.80;5.07;;;;;;;21.32;nan;-24409.53;4937467;29;20190;-79
2022/08/14 02:10:12;;;;;;;9.25;5.47;;;;;;;21.05;nan;-24402.19;4936507;29;20185;-80
2022/08/14 02:12:38;;;;;;;9.20;5.10;;;;;;;21.28;nan;-24408.56;4936771;29;20249;-80
2022/08/14 02:15:07;;;;;;;8.95;5.25;;;;;;;21.41;nan;-24412.19;4936970;29;20229;-80
2022/08/14 02:17:33;;;;;;;10.80;5.97;;;;;;;21.42;nan;-24412.31;4953729;29;20543;-80
2022/08/14 02:19:59;;;;;;;10.77;5.40;;;;;;;21.54;nan;-24415.66;4936477;29;20252;-78
2022/08/14 02:22:25;;;;;;;9.93;5.35;;;;;;;21.65;nan;-24418.69;4937081;29;20185;-80
2022/08/14 02:24:51;;;;;;;8.30;4.95;;;;;;;21.47;nan;-24413.69;4955008;29;20277;-79
2022/08/14 02:27:17;;;;;;;9.45;5.53;;;;;;;21.64;nan;-24418.41;4937710;29;20232;-79
2022/08/14 02:29:43;;;;;;;8.05;5.22;;;;;;;21.72;nan;-24420.63;4936770;29;20260;-79
2022/08/14 02:32:10;;;;;;;8.48;5.25;;;;;;;21.78;nan;-24422.28;4949108;29;20197;-79
2022/08/14 02:34:37;;;;;;;6.97;4.20;;;;;;;21.81;nan;-24423.13;4937183;29;20224;-80
2022/08/14 02:37:12;;;;;;;7.97;4.80;;;;;;;21.65;nan;-24418.56;4954496;29;20735;-81
2022/08/14 02:39:41;;;;;;;8.27;5.25;;;;;;;21.90;nan;-24425.63;4954770;29;20268;-79
2022/08/14 02:42:11;;;;;;;9.23;4.95;;;;;;;21.72;nan;-24420.63;4937573;29;20197;-80
2022/08/14 02:44:38;;;;;;;9.77;5.35;;;;;;;21.70;nan;-24419.94;4953756;29;20268;-79
2022/08/14 02:47:04;;;;;;;10.30;5.28;;;;;;;21.71;nan;-24420.34;4937633;29;20245;-79
2022/08/14 02:49:30;;;;;;;9.05;4.85;;;;;;;21.72;nan;-24420.50;4936744;29;20205;-80
2022/08/14 02:51:57;;;;;;;10.00;5.13;;;;;;;21.79;nan;-24422.56;4954119;29;20178;-79
2022/08/14 02:54:25;;;;;;;7.55;4.45;;;;;;;20.59;nan;-24389.72;4968543;28;20206;-79
2022/08/14 02:56:53;;;;;;;7.43;4.80;;;;;;;21.43;nan;-24412.72;4937294;29;20210;-80
2022/08/14 02:59:22;;;;;;;11.00;5.40;;;;;;;21.73;nan;-24420.91;4936072;29;20201;-80
2022/08/14 03:01:47;;;;;;;8.13;4.95;;;;;;;21.55;nan;-24416.06;4953306;29;20194;-81
2022/08/14 03:04:13;;;;;;;9.55;4.95;;;;;;;21.40;nan;-24411.91;4937862;29;20193;-80
2022/08/14 03:06:42;;;;;;;8.18;5.28;;;;;;;21.58;nan;-24416.88;4955018;29;20182;-80
2022/08/14 03:09:10;;;;;;;9.85;5.60;;;;;;;21.50;nan;-24414.66;4936901;29;20657;-80
2022/08/14 03:11:38;;;;;;;9.05;5.25;;;;;;;21.52;nan;-24415.09;4937570;29;20582;-80
2022/08/14 03:14:04;;;;;;;10.07;5.72;;;;;;;21.34;nan;-24410.09;4938994;29;20244;-79
2022/08/14 03:16:34;;;;;;;8.57;5.75;;;;;;;21.49;nan;-24414.41;4939289;29;20349;-80
2022/08/14 03:19:02;;;;;;;11.63;5.85;;;;;;;21.45;nan;-24413.16;4957635;29;20196;-80
2022/08/14 03:21:30;;;;;;;11.20;5.93;;;;;;;21.25;nan;-24407.59;4940984;29;20182;-81
2022/08/14 03:24:11;;;;;;;10.93;5.18;;;;;;;21.30;nan;-24409.00;4940007;29;20280;-80
2022/08/14 03:26:41;;;;;;;10.88;5.43;;;;;;;21.31;nan;-24409.41;4940500;29;20198;-81
2022/08/14 03:29:08;;;;;;;9.20;5.35;;;;;;;21.43;nan;-24412.59;4957618;29;20193;-81
2022/08/14 03:31:39;;;;;;;9.05;4.75;;;;;;;21.09;nan;-24403.44;4957152;29;20662;-81
2022/08/14 03:34:07;;;;;;;11.40;5.50;;;;;;;21.25;nan;-24407.75;4956060;28;20261;-80
2022/08/14 03:36:33;;;;;;;10.38;5.40;;;;;;;21.21;nan;-24406.50;4955336;28;20593;-81
2022/08/14 03:38:58;;;;;;;8.80;5.22;;;;;;;20.97;nan;-24399.97;4940557;29;20277;-80
2022/08/14 03:41:26;;;;;;;9.43;4.93;;;;;;;21.13;nan;-24404.56;4939664;29;20178;-80
2022/08/14 03:43:56;;;;;;;9.82;5.32;;;;;;;21.03;nan;-24401.78;4939486;29;20209;-80
2022/08/14 03:46:23;;;;;;;10.52;5.10;;;;;;;21.18;nan;-24405.81;4939014;29;20186;-80
2022/08/14 03:48:50;;;;;;;8.20;5.65;;;;;;;21.02;nan;-24401.50;4938977;29;20727;-79
2022/08/14 03:51:15;;;;;;;11.10;5.40;;;;;;;21.21;nan;-24406.63;4938057;29;20268;-80
2022/08/14 03:53:44;;;;;;;9.07;5.78;;;;;;;21.28;nan;-24408.56;4938351;29;20281;-80
2022/08/14 03:56:13;;;;;;;8.90;4.97;;;;;;;21.15;nan;-24404.97;4952843;29;20213;-80
2022/08/14 03:58:45;;;;;;;10.27;5.65;;;;;;;21.22;nan;-24406.78;4955310;29;20193;-80
2022/08/14 04:01:21;;;;;;;8.48;5.03;;;;;;;21.33;nan;-24409.81;4939956;29;20197;-81
2022/08/14 04:03:48;;;;;;;10.23;5.40;;;;;;;21.39;nan;-24411.50;4937946;29;20185;-80
2022/08/14 04:06:15;;;;;;;10.75;6.03;;;;;;;21.49;nan;-24414.25;4939305;29;20325;-80
2022/08/14 04:08:42;;;;;;;8.05;4.78;;;;;;;21.55;nan;-24416.06;4932186;29;20186;-80
2022/08/14 04:11:08;;;;;;;8.63;5.13;;;;;;;21.62;nan;-24417.84;4940171;29;20182;-80
2022/08/14 04:13:37;;;;;;;9.40;5.50;;;;;;;21.52;nan;-24415.22;4938021;29;20224;-80
2022/08/14 04:16:06;;;;;;;12.05;5.90;;;;;;;21.90;nan;-24425.63;4939147;29;20324;-80
2022/08/14 04:18:32;;;;;;;9.27;5.05;;;;;;;21.83;nan;-24423.69;4956312;28;20263;-80
2022/08/14 04:20:58;;;;;;;9.80;5.82;;;;;;;21.81;nan;-24423.13;4939068;29;20645;-81
2022/08/14 04:23:24;;;;;;;10.15;5.47;;;;;;;21.92;nan;-24426.16;4938671;29;20197;-81
2022/08/14 04:25:54;;;;;;;10.60;5.68;;;;;;;21.96;nan;-24427.28;4939966;29;20185;-81
2022/08/14 04:28:20;;;;;;;10.88;5.38;;;;;;;21.82;nan;-24423.41;4956459;29;20186;-80
2022/08/14 04:30:46;;;;;;;12.15;5.40;;;;;;;22.11;nan;-24431.28;4938871;29;20225;-80
2022/08/14 04:33:13;;;;;;;9.38;5.40;;;;;;;22.07;nan;-24430.19;4939771;29;20198;-80
2022/08/14 04:35:38;;;;;;;8.90;5.10;;;;;;;22.13;nan;-24431.72;4970979;28;20315;-80
2022/08/14 04:43:38;;;;;;;10.98;5.47;;;;;;;21.90;nan;-24425.63;4955554;29;20669;-79
2022/08/14 04:46:16;;;;;;;11.35;6.20;;;;;;;21.92;nan;-24426.16;4955618;29;20634;-79
2022/08/14 04:48:41;;;;;;;11.18;6.18;;;;;;;22.30;nan;-24436.41;4956454;29;20189;-79
2022/08/14 04:51:09;;;;;;;11.07;5.28;;;;;;;22.08;nan;-24430.47;4939198;29;20188;-79
2022/08/14 04:53:37;;;;;;;9.70;5.10;;;;;;;22.16;nan;-24432.69;4938577;29;20212;-80
2022/08/14 04:56:05;;;;;;;10.32;5.70;;;;;;;22.10;nan;-24431.03;4937605;29;20206;-80
2022/08/14 04:58:33;;;;;;;10.57;5.70;;;;;;;22.34;nan;-24437.53;4955008;29;20645;-79
2022/08/14 05:01:00;;;;;;;11.45;6.30;;;;;;;22.21;nan;-24433.94;4939130;29;20185;-79
2022/08/14 05:03:32;;;;;;;9.27;5.65;;;;;;;22.14;nan;-24432.13;4955379;29;20190;-79
2022/08/14 05:06:00;;;;;;;10.60;5.75;;;;;;;22.36;nan;-24438.06;4938531;29;20244;-79
2022/08/14 05:08:26;;;;;;;9.27;5.75;;;;;;;22.44;nan;-24440.28;4955870;29;20273;-79
2022/08/14 05:10:54;;;;;;;9.57;5.93;;;;;;;22.57;nan;-24443.88;4955571;29;20642;-80
2022/08/14 05:13:27;;;;;;;9.70;5.50;;;;;;;23.02;nan;-24456.06;4937853;29;20712;-79
2022/08/14 05:15:56;;;;;;;10.45;5.18;;;;;;;23.23;nan;-24461.84;4955421;29;20328;-79
2022/08/14 05:18:24;;;;;;;8.18;4.95;;;;;;;23.50;nan;-24469.19;4955020;29;20193;-79
2022/08/14 05:20:55;;;;;;;10.68;5.72;;;;;;;23.43;nan;-24467.25;4938248;29;20192;-79
2022/08/14 05:23:23;;;;;;;9.45;5.38;;;;;;;24.21;nan;-24488.63;4938699;29;20194;-79
2022/08/14 05:25:55;;;;;;;10.20;5.68;;;;;;;24.44;nan;-24494.97;4956398;29;20230;-79
2022/08/14 05:28:23;;;;;;;9.52;5.43;;;;;;;24.60;nan;-24499.38;4955568;29;20660;-80
2022/08/14 05:30:55;;;;;;;12.30;5.75;;;;;;;24.81;nan;-24505.03;4940111;29;20576;-79
2022/08/14 05:33:24;;;;;;;9.45;5.80;;;;;;;24.73;nan;-24502.69;4957907;28;20178;-80
2022/08/14 05:35:51;;;;;;;10.20;5.75;;;;;;;24.99;nan;-24510.00;4956111;29;20337;-79
2022/08/14 05:38:21;;;;;;;9.90;5.55;;;;;;;25.37;nan;-24520.31;4938826;29;20340;-79
2022/08/14 05:40:48;;;;;;;10.80;6.10;;;;;;;25.60;nan;-24526.50;4955746;29;20194;-80
2022/08/14 05:43:14;;;;;;;8.23;5.13;;;;;;;25.06;nan;-24511.78;4955729;29;20189;-80
2022/08/14 05:45:41;;;;;;;8.95;5.05;;;;;;;25.31;nan;-24518.66;4955473;28;20252;-80
2022/08/14 05:48:11;;;;;;;10.45;5.85;;;;;;;25.62;nan;-24526.94;4939175;29;20178;-80
2022/08/14 05:50:37;;;;;;;10.55;6.15;;;;;;;25.11;nan;-24513.16;4954866;29;20224;-80
2022/08/14 05:53:03;;;;;;;16.08;5.40;;;;;;;24.82;nan;-24505.19;4938561;29;20237;-80
2022/08/14 05:55:28;;;;;;;8.30;5.00;;;;;;;24.55;nan;-24497.88;4954049;28;20589;-79
2022/08/14 05:57:57;;;;;;;8.77;4.60;;;;;;;24.53;nan;-24497.47;4937840;29;20186;-79
2022/08/14 06:00:25;;;;;;;14.45;5.55;;;;;;;24.31;nan;-24491.41;4956321;29;20181;-79
2022/08/14 06:02:51;;;;;;;10.85;5.72;;;;;;;24.41;nan;-24494.16;4937070;29;20676;-79
2022/08/14 06:05:16;;;;;;;10.57;5.68;;;;;;;24.46;nan;-24495.53;4941280;29;20189;-79
2022/08/14 06:07:42;;;;;;;12.32;5.68;;;;;;;24.44;nan;-24494.97;4939248;29;20184;-79
2022/08/14 06:10:09;;;;;;;11.02;6.38;;;;;;;24.52;nan;-24497.19;4939937;29;20221;-79
2022/08/14 06:12:35;;;;;;;10.05;5.80;;;;;;;24.37;nan;-24492.91;4938101;29;20182;-79
2022/08/14 06:15:01;;;;;;;9.20;5.78;;;;;;;24.43;nan;-24494.69;4938465;29;20245;-79
2022/08/14 06:17:26;;;;;;;9.25;5.65;;;;;;;24.43;nan;-24494.69;4938708;29;20185;-79
2022/08/14 06:19:52;;;;;;;9.32;5.60;;;;;;;24.43;nan;-24494.69;4956579;28;20182;-78
2022/08/14 06:22:19;;;;;;;10.57;5.60;;;;;;;24.58;nan;-24498.84;4936277;29;20224;-79
2022/08/14 06:24:44;;;;;;;13.00;5.47;;;;;;;24.56;nan;-24498.16;4966337;28;20240;-80
2022/08/14 06:27:10;;;;;;;10.60;5.28;;;;;;;24.38;nan;-24493.31;4932134;29;20895;-79
2022/08/14 06:29:36;;;;;;;10.30;5.72;;;;;;;24.62;nan;-24499.81;4932190;29;20320;-79
2022/08/14 06:32:03;;;;;;;10.88;5.68;;;;;;;24.43;nan;-24494.69;4932095;29;20218;-80
2022/08/14 06:34:28;;;;;;;8.63;5.20;;;;;;;24.12;nan;-24486.16;4948769;29;21372;-79
2022/08/14 06:36:55;;;;;;;9.45;5.40;;;;;;;24.22;nan;-24488.91;4930719;29;20186;-80
2022/08/14 06:39:22;;;;;;;8.90;5.32;;;;;;;24.15;nan;-24486.97;4950629;29;20202;-80
2022/08/14 06:41:48;;;;;;;9.98;5.72;;;;;;;23.78;nan;-24477.03;4932000;29;20277;-80
2022/08/14 06:44:13;;;;;;;8.85;5.28;;;;;;;23.70;nan;-24474.84;4947939;29;20201;-80
2022/08/14 06:46:39;;;;;;;10.13;5.47;;;;;;;23.82;nan;-24478.00;4952141;28;20535;-80
2022/08/14 06:49:04;;;;;;;8.20;5.32;;;;;;;23.72;nan;-24475.38;4933876;29;20665;-80
2022/08/14 06:51:30;;;;;;;10.68;5.82;;;;;;;23.77;nan;-24476.78;4934419;29;20190;-79
2022/08/14 06:53:56;;;;;;;9.57;5.80;;;;;;;23.87;nan;-24479.25;4951156;29;20193;-79
2022/08/14 06:56:22;;;;;;;9.95;5.85;;;;;;;23.80;nan;-24477.31;4933023;29;20210;-81
2022/08/14 06:58:48;;;;;;;8.93;5.55;;;;;;;24.00;nan;-24482.84;4951455;29;20182;-79
2022/08/14 07:06:42;;;;;;;9.00;5.20;;;;;;;24.94;nan;-24508.47;4952634;29;20188;-81
2022/08/14 07:09:10;;;;;;;9.63;5.30;;;;;;;25.00;nan;-24510.28;4965743;28;20712;-83
2022/08/14 07:11:36;;;;;;;8.98;5.13;;;;;;;24.92;nan;-24507.94;4966176;28;20724;-78
2022/08/14 07:14:01;;;;;;;9.82;5.20;;;;;;;25.13;nan;-24513.72;4951748;29;20269;-79
2022/08/14 07:16:27;;;;;;;9.88;5.10;;;;;;;24.98;nan;-24509.72;4932792;29;20667;-79
2022/08/14 07:18:53;;;;;;;10.00;5.18;;;;;;;24.87;nan;-24506.69;4951758;29;20182;-80
2022/08/14 07:21:18;;;;;;;9.85;5.03;;;;;;;25.11;nan;-24513.03;4933710;29;20194;-79
2022/08/14 07:23:45;;;;;;;9.40;5.30;;;;;;;24.70;nan;-24501.88;4932408;29;20189;-80
2022/08/14 07:26:11;;;;;;;8.05;4.93;;;;;;;24.74;nan;-24502.97;4933058;29;20190;-80
2022/08/14 07:28:39;;;;;;;9.13;4.93;;;;;;;24.45;nan;-24495.25;4935876;29;20622;-79
2022/08/14 07:31:07;;;;;;;9.45;5.50;;;;;;;24.62;nan;-24499.94;4936573;29;20218;-79
2022/08/14 07:33:42;;;;;;;9.80;5.70;;;;;;;24.30;nan;-24491.13;4950127;29;20637;-79
2022/08/14 07:36:11;;;;;;;9.38;5.43;;;;;;;23.90;nan;-24480.09;4956733;29;20228;-80
2022/08/14 07:38:39;;;;;;;11.68;5.45;;;;;;;23.85;nan;-24478.84;4939090;29;20649;-79
2022/08/14 07:41:07;;;;;;;9.45;4.97;;;;;;;23.62;nan;-24472.63;4939352;29;20190;-79
2022/08/14 07:43:34;;;;;;;9.82;5.10;;;;;;;23.34;nan;-24465.03;4957361;29;20178;-80
2022/08/14 07:46:00;;;;;;;7.07;4.65;;;;;;;22.95;nan;-24454.25;4958236;29;20194;-79
2022/08/14 07:48:25;;;;;;;10.32;4.90;;;;;;;22.99;nan;-24455.38;4958120;29;20198;-80
2022/08/14 07:50:52;;;;;;;7.97;4.97;;;;;;;23.18;nan;-24460.47;4957198;29;20181;-79
2022/08/14 07:53:18;;;;;;;8.82;4.72;;;;;;;23.12;nan;-24458.94;4957966;29;20178;-81
2022/08/14 07:55:45;;;;;;;10.85;5.78;;;;;;;23.03;nan;-24456.34;4958090;29;20221;-80
2022/08/14 07:58:11;;;;;;;10.57;5.43;;;;;;;22.80;nan;-24450.25;4940029;29;20190;-82
2022/08/14 08:00:37;;;;;;;9.52;5.40;;;;;;;22.58;nan;-24444.03;4941899;29;20193;-80
2022/08/14 08:03:08;;;;;;;10.35;5.03;;;;;;;22.46;nan;-24440.84;4939667;29;20575;-79
2022/08/14 08:05:35;;;;;;;8.45;5.20;;;;;;;22.35;nan;-24437.78;4956865;29;20186;-80
2022/08/14 08:08:02;;;;;;;9.05;5.22;;;;;;;22.11;nan;-24431.16;4938439;29;20273;-78
2022/08/14 08:10:31;;;;;;;9.00;5.20;;;;;;;21.34;nan;-24410.09;4933803;29;20654;-79
2022/08/14 08:13:03;;;;;;;7.22;4.47;;;;;;;21.37;nan;-24410.94;4949803;29;20166;-79
2022/08/14 08:15:52;;;;;;;8.90;5.32;;;;;;;21.11;nan;-24403.84;4949930;29;20245;-77
2022/08/14 08:18:18;;;;;;;9.57;5.18;;;;;;;20.68;nan;-24392.19;4950586;29;20432;-79
2022/08/14 08:20:46;;;;;;;8.43;4.78;;;;;;;20.54;nan;-24388.19;4932915;29;20673;-80
2022/08/14 08:23:14;;;;;;;10.82;5.28;;;;;;;20.51;nan;-24387.34;4951035;29;20197;-78
2022/08/14 08:25:42;;;;;;;11.98;5.75;;;;;;;20.69;nan;-24392.34;4950900;29;20237;-79
2022/08/14 08:28:16;;;;;;;11.02;6.15;;;;;;;20.79;nan;-24394.97;4933047;29;20186;-79
2022/08/14 08:30:50;;;;;;;9.20;5.22;;;;;;;21.21;nan;-24406.50;4950975;29;20185;-80
2022/08/14 08:33:18;;;;;;;10.77;5.82;;;;;;;21.32;nan;-24409.53;4951791;29;20181;-80
2022/08/14 08:35:44;;;;;;;8.38;5.05;;;;;;;21.40;nan;-24411.91;4932871;29;20228;-78
2022/08/14 08:38:13;;;;;;;10.50;5.40;;;;;;;21.12;nan;-24404.13;4933418;29;20201;-79
2022/08/14 08:40:45;;;;;;;9.18;5.43;;;;;;;21.48;nan;-24414.13;4950661;29;20186;-78
2022/08/14 08:43:23;;;;;;;12.30;5.93;;;;;;;21.46;nan;-24413.56;4933123;29;20194;-78
2022/08/14 08:45:59;;;;;;;9.93;5.80;;;;;;;21.85;nan;-24424.22;4932633;29;20631;-80
2022/08/14 08:48:29;;;;;;;12.27;5.78;;;;;;;22.12;nan;-24431.56;4950015;29;20189;-79
2022/08/14 08:51:00;;;;;;;11.32;5.60;;;;;;;22.09;nan;-24430.75;4932747;29;20209;-78
2022/08/14 08:53:31;;;;;;;11.88;6.10;;;;;;;21.92;nan;-24426.03;4948736;29;20190;-79
2022/08/14 08:55:57;;;;;;;11.38;5.75;;;;;;;21.62;nan;-24417.72;4948985;29;22106;-78
2022/08/14 08:58:22;;;;;;;8.65;4.65;;;;;;;21.74;nan;-24421.03;4949482;29;20201;-80
2022/08/14 09:00:52;;;;;;;7.18;4.05;;;;;;;21.88;nan;-24424.91;4950518;29;20185;-80
2022/08/14 09:03:23;;;;;;;8.10;4.90;;;;;;;21.72;nan;-24420.63;4932625;29;20677;-77
2022/08/14 09:05:51;;;;;;;8.68;4.50;;;;;;;21.98;nan;-24427.69;4932148;29;20250;-79
2022/08/14 09:08:24;;;;;;;7.93;4.20;;;;;;;21.80;nan;-24422.84;4950160;28;20192;-80
2022/08/14 09:10:51;;;;;;;10.73;4.38;;;;;;;22.01;nan;-24428.53;4932015;29;20236;-79
2022/08/14 09:13:18;;;;;;;9.68;4.07;;;;;;;21.94;nan;-24426.72;4963567;28;20261;-78
2022/08/14 09:15:46;;;;;;;7.70;4.57;;;;;;;22.16;nan;-24432.53;4949358;29;20233;-79
2022/08/14 09:18:15;;;;;;;8.13;4.85;;;;;;;22.19;nan;-24433.38;4950267;29;20633;-78
2022/08/14 09:20:44;;;;;;;6.85;3.92;;;;;;;22.39;nan;-24439.03;4950256;29;20185;-78
2022/08/14 09:23:12;;;;;;;6.13;4.10;;;;;;;22.26;nan;-24435.31;4949570;29;20665;-79
2022/08/14 09:25:41;;;;;;;8.18;4.20;;;;;;;22.40;nan;-24439.19;4949626;29;20664;-79
2022/08/14 09:28:07;;;;;;;10.50;4.28;;;;;;;22.67;nan;-24446.50;4946930;29;20189;-79
2022/08/14 09:30:38;;;;;;;9.23;4.63;;;;;;;22.71;nan;-24447.75;4931859;29;20225;-80
2022/08/14 09:33:03;;;;;;;10.80;4.65;;;;;;;22.89;nan;-24452.72;4948389;29;20205;-80
2022/08/14 09:35:40;;;;;;;8.52;4.85;;;;;;;22.79;nan;-24449.97;4949162;29;20272;-80
2022/08/14 09:38:31;;;;;;;9.02;5.28;;;;;;;22.74;nan;-24448.44;4949574;29;20194;-78
2022/08/14 09:41:12;;;;;;;9.02;5.00;;;;;;;22.05;nan;-24429.63;4948935;29;20197;-78
2022/08/14 09:43:37;;;;;;;11.02;5.95;;;;;;;22.01;nan;-24428.53;4949578;29;20296;-78
2022/08/14 09:46:06;;;;;;;13.88;5.85;;;;;;;21.73;nan;-24420.91;4929460;29;20281;-79
2022/08/14 09:48:32;;;;;;;13.35;6.28;;;;;;;21.06;nan;-24402.59;4949277;29;20193;-78
2022/08/14 09:50:59;;;;;;;11.90;6.07;;;;;;;21.19;nan;-24406.06;4949278;29;20719;-78
2022/08/14 09:53:36;;;;;;;14.15;6.15;;;;;;;21.23;nan;-24407.03;4947982;29;20717;-78
2022/08/14 09:56:03;;;;;;;11.70;5.80;;;;;;;21.06;nan;-24402.59;4948766;29;20241;-78
2022/08/14 09:58:38;;;;;;;10.32;5.30;;;;;;;21.08;nan;-24403.03;4948374;29;20180;-78
2022/08/14 10:01:13;;;;;;;12.98;6.88;;;;;;;20.93;nan;-24399.00;4949043;29;21546;-79
2022/08/14 10:03:52;;;;;;;12.50;6.43;;;;;;;20.88;nan;-24397.47;4949937;29;20308;-79
2022/08/14 10:06:19;;;;;;;12.38;6.82;;;;;;;21.05;nan;-24402.34;4948611;29;20227;-79
2022/08/14 10:08:49;;;;;;;12.00;6.30;;;;;;;21.20;nan;-24406.34;4947326;28;20179;-79
2022/08/14 10:11:18;;;;;;;10.65;6.05;;;;;;;21.09;nan;-24403.44;4948393;29;20185;-78
2022/08/14 10:13:46;;;;;;;14.52;6.70;;;;;;;21.51;nan;-24414.81;4949209;29;20190;-79
2022/08/14 10:16:12;;;;;;;10.27;6.13;;;;;;;21.68;nan;-24419.53;4949166;28;20269;-79
2022/08/14 10:18:38;;;;;;;10.68;5.70;;;;;;;21.38;nan;-24411.22;4930676;29;20273;-79
2022/08/14 10:21:07;;;;;;;10.73;5.63;;;;;;;21.57;nan;-24416.47;4934230;29;20181;-79
2022/08/14 10:23:51;;;;;;;10.63;6.20;;;;;;;21.57;nan;-24416.47;4936812;29;20194;-78
2022/08/14 10:26:19;;;;;;;13.68;6.50;;;;;;;21.43;nan;-24412.59;4937354;29;20327;-80
2022/08/14 10:28:48;;;;;;;12.45;7.05;;;;;;;21.61;nan;-24417.59;4936742;29;20229;-80
2022/08/14 10:31:16;;;;;;;13.60;6.35;;;;;;;21.31;nan;-24409.28;4970434;28;20664;-79
2022/08/14 10:33:42;;;;;;;10.60;5.80;;;;;;;21.49;nan;-24414.25;4969417;28;20704;-79
2022/08/14 10:36:08;;;;;;;13.07;7.03;;;;;;;21.37;nan;-24410.94;4936642;29;20197;-78
2022/08/14 10:38:34;;;;;;;11.25;6.45;;;;;;;21.53;nan;-24415.50;4937173;29;20205;-77
2022/08/14 10:41:15;;;;;;;12.23;6.10;;;;;;;21.62;nan;-24417.72;4938388;28;20267;-78
2022/08/14 10:43:42;;;;;;;12.15;6.32;;;;;;;21.88;nan;-24425.06;4955870;29;20185;-78
2022/08/14 10:46:16;;;;;;;10.55;5.57;;;;;;;21.68;nan;-24419.53;4954318;29;20584;-78
2022/08/14 10:48:55;;;;;;;9.85;5.55;;;;;;;21.98;nan;-24427.84;4955145;29;20920;-79
2022/08/14 10:51:28;;;;;;;11.27;6.07;;;;;;;22.23;nan;-24434.47;4953875;29;20186;-78
2022/08/14 10:53:55;;;;;;;9.80;5.80;;;;;;;22.46;nan;-24440.84;4954825;29;20217;-77
2022/08/14 10:56:32;;;;;;;11.75;5.78;;;;;;;22.12;nan;-24431.56;4937247;29;20267;-80
2022/08/14 10:59:07;;;;;;;13.18;6.18;;;;;;;22.27;nan;-24435.59;4952497;28;20184;-78
2022/08/14 11:01:39;;;;;;;10.07;6.10;;;;;;;22.14;nan;-24432.00;4955494;28;20252;-79
2022/08/14 11:04:04;;;;;;;12.25;6.82;;;;;;;22.33;nan;-24437.25;4937196;29;20189;-80
2022/08/14 11:06:32;;;;;;;12.73;6.50;;;;;;;21.99;nan;-24427.97;4938225;29;20630;-80
2022/08/14 11:08:57;;;;;;;12.13;5.88;;;;;;;21.97;nan;-24427.41;4938316;29;20201;-81
2022/08/14 11:11:26;;;;;;;10.63;6.20;;;;;;;22.06;nan;-24429.78;4937270;29;20186;-78
2022/08/14 11:13:56;;;;;;;9.57;5.88;;;;;;;22.03;nan;-24429.22;4938525;29;20182;-79
2022/08/14 11:16:23;;;;;;;10.88;6.20;;;;;;;22.08;nan;-24430.31;4954667;28;20234;-79
2022/08/14 11:18:50;;;;;;;8.95;5.35;;;;;;;22.02;nan;-24428.81;4937849;29;20564;-78
2022/08/14 11:21:19;;;;;;;10.60;5.70;;;;;;;22.04;nan;-24429.34;4956185;28;20198;-80
2022/08/14 11:23:46;;;;;;;8.75;5.10;;;;;;;22.09;nan;-24430.75;4937218;29;20633;-80
2022/08/14 11:26:14;;;;;;;12.82;6.40;;;;;;;22.01;nan;-24428.66;4938456;29;20272;-78
2022/08/14 11:28:42;;;;;;;10.48;5.75;;;;;;;22.08;nan;-24430.47;4938069;29;20204;-81
2022/08/14 11:31:09;;;;;;;12.00;6.35;;;;;;;22.17;nan;-24432.81;4937193;28;20186;-80
2022/08/14 11:33:36;;;;;;;12.05;5.90;;;;;;;21.96;nan;-24427.28;4952177;29;20249;-80
2022/08/14 11:36:05;;;;;;;9.73;5.30;;;;;;;21.96;nan;-24427.28;4933908;29;20710;-81
2022/08/14 11:38:41;;;;;;;11.38;5.75;;;;;;;21.96;nan;-24427.16;4951014;29;20198;-82
2022/08/14 11:41:09;;;;;;;9.45;5.78;;;;;;;21.87;nan;-24424.66;4951642;29;20186;-78
2022/08/14 11:43:43;;;;;;;8.88;5.28;;;;;;;21.73;nan;-24420.91;4953578;29;20193;-79
2022/08/14 11:46:09;;;;;;;12.00;6.75;;;;;;;21.59;nan;-24417.03;4938227;29;20178;-78
2022/08/14 11:48:56;;;;;;;9.25;5.60;;;;;;;21.85;nan;-24424.09;4940047;29;20190;-78
2022/08/14 11:51:25;;;;;;;9.15;4.85;;;;;;;21.79;nan;-24422.44;4935430;29;20637;-78
2022/08/14 11:53:59;;;;;;;11.45;5.10;;;;;;;21.62;nan;-24417.72;4953819;29;20198;-78
2022/08/14 11:56:34;;;;;;;8.38;4.70;;;;;;;21.64;nan;-24418.28;4935044;29;20217;-79
2022/08/14 11:59:00;;;;;;;9.10;4.97;;;;;;;21.75;nan;-24421.47;4953344;29;20177;-79